createdAt,value
2018-06-30T00:01:14.515Z,43.30
2018-06-30T00:07:00.544Z,44.13
2018-06-30T00:09:29.138Z,44.59
2018-06-30T00:11:57.713Z,44.01
2018-06-30T00:14:26.600Z,44.31
2018-06-30T00:17:05.093Z,44.66
2018-06-30T00:19:33.607Z,43.79
2018-06-30T00:22:03.230Z,44.56
2018-06-30T00:24:31.796Z,44.65
2018-06-30T00:27:05.528Z,44.05
2018-06-30T00:29:34.536Z,44.02
2018-06-30T00:32:03.825Z,44.31
2018-06-30T00:34:38.861Z,44.91
2018-06-30T00:37:07.412Z,44.50
2018-06-30T00:39:35.963Z,44.68
2018-06-30T00:42:06.216Z,45.21
2018-06-30T00:44:34.724Z,44.43
2018-06-30T00:47:03.227Z,45.36
2018-06-30T00:52:11.044Z,44.65
2018-06-30T00:57:13.044Z,44.51
2018-06-30T00:59:41.582Z,44.50
2018-06-30T01:02:12.215Z,44.43
2018-06-30T01:04:40.711Z,45.42
2018-06-30T01:07:09.705Z,45.11
2018-06-30T01:09:38.228Z,45.47
2018-06-30T01:12:08.165Z,44.76
2018-06-30T01:14:36.960Z,45.60
2018-06-30T01:19:38.794Z,45.30
2018-06-30T01:22:11.207Z,44.80
2018-06-30T01:24:39.755Z,45.61
2018-06-30T01:27:14.686Z,45.78
2018-06-30T01:29:43.994Z,45.39
2018-06-30T01:32:12.567Z,45.63
2018-06-30T01:34:42.890Z,46.11
2018-06-30T01:37:11.375Z,46.04
2018-06-30T01:39:39.946Z,45.61
2018-06-30T01:42:08.435Z,45.38
2018-06-30T01:44:37.368Z,45.50
2018-06-30T01:47:05.902Z,45.70
2018-06-30T01:49:34.399Z,46.25
2018-06-30T01:52:09.228Z,45.69
2018-06-30T01:54:37.759Z,46.21
2018-06-30T01:57:06.796Z,45.76
2018-06-30T01:59:35.492Z,45.90
2018-06-30T02:02:04.753Z,46.98
2018-06-30T02:04:33.299Z,46.74
2018-06-30T02:07:12.729Z,46.07
2018-06-30T02:09:41.588Z,46.92
2018-06-30T02:12:10.630Z,46.27
2018-06-30T02:14:39.495Z,47.24
2018-06-30T02:17:08.379Z,46.57
2018-06-30T02:19:36.865Z,47.23
2018-06-30T02:22:05.399Z,47.43
2018-06-30T02:24:34.420Z,46.84
2018-06-30T02:27:02.972Z,46.78
2018-06-30T02:29:37.261Z,46.80
2018-06-30T02:32:06.255Z,46.87
2018-06-30T02:34:34.736Z,47.46
2018-06-30T02:37:03.753Z,47.85
2018-06-30T02:39:32.232Z,47.19
2018-06-30T02:42:11.554Z,47.97
2018-06-30T02:44:40.457Z,47.98
2018-06-30T02:47:08.964Z,47.60
2018-06-30T02:49:37.626Z,48.03
2018-06-30T02:52:06.623Z,47.92
2018-06-30T02:54:35.224Z,47.83
2018-06-30T02:57:03.789Z,47.30
2018-06-30T02:59:32.648Z,47.27
2018-06-30T03:02:01.845Z,47.88
2018-06-30T03:04:30.392Z,47.47
2018-06-30T03:06:59.316Z,47.42
2018-06-30T03:09:38.662Z,47.94
2018-06-30T03:12:07.192Z,47.64
2018-06-30T03:14:39.175Z,47.75
2018-06-30T03:17:07.680Z,47.82
2018-06-30T03:19:36.663Z,48.59
2018-06-30T03:22:05.259Z,47.93
2018-06-30T03:24:34.376Z,48.01
2018-06-30T03:27:03.300Z,48.50
2018-06-30T03:29:31.808Z,48.41
2018-06-30T03:32:00.289Z,48.39
2018-06-30T03:34:34.648Z,48.50
2018-06-30T03:37:03.288Z,48.75
2018-06-30T03:39:31.743Z,48.17
2018-06-30T03:42:00.524Z,48.43
2018-06-30T03:44:29.060Z,48.27
2018-06-30T03:46:57.569Z,48.25
2018-06-30T03:49:26.399Z,49.02
2018-06-30T03:51:55.140Z,48.55
2018-06-30T03:54:23.595Z,48.86
2018-06-30T03:56:57.704Z,49.04
2018-06-30T03:59:26.196Z,48.56
2018-06-30T04:01:54.740Z,48.27
2018-06-30T04:04:34.942Z,48.76
2018-06-30T04:07:03.469Z,48.63
2018-06-30T04:09:32.290Z,49.35
2018-06-30T04:12:00.830Z,49.77
2018-06-30T04:14:29.309Z,49.81
2018-06-30T04:17:03.152Z,49.22
2018-06-30T04:19:31.632Z,49.06
2018-06-30T04:22:03.366Z,49.49
2018-06-30T04:24:32.239Z,49.92
2018-06-30T04:27:00.728Z,49.59
2018-06-30T04:29:29.217Z,49.77
2018-06-30T04:31:58.149Z,49.44
2018-06-30T04:34:26.616Z,49.87
2018-06-30T04:36:55.109Z,49.68
2018-06-30T04:42:04.340Z,50.03
2018-06-30T04:44:33.300Z,49.26
2018-06-30T04:47:01.825Z,49.74
2018-06-30T04:49:30.343Z,49.14
2018-06-30T04:51:59.253Z,49.18
2018-06-30T04:54:28.803Z,49.56
2018-06-30T04:56:57.353Z,48.85
2018-06-30T04:59:26.239Z,49.08
2018-06-30T05:01:57.864Z,49.44
2018-06-30T05:04:26.367Z,49.58
2018-06-30T05:06:55.157Z,48.92
2018-06-30T05:09:23.679Z,49.90
2018-06-30T05:11:52.156Z,49.19
2018-06-30T05:14:20.936Z,48.84
2018-06-30T05:16:49.391Z,49.70
2018-06-30T05:19:17.906Z,48.96
2018-06-30T05:21:49.833Z,48.78
2018-06-30T05:24:18.356Z,49.45
2018-06-30T05:26:46.882Z,48.82
2018-06-30T05:29:15.459Z,48.72
2018-06-30T05:31:46.063Z,48.71
2018-06-30T05:34:14.664Z,49.06
2018-06-30T05:39:05.864Z,48.07
2018-06-30T05:41:34.471Z,48.66
2018-06-30T05:44:04.170Z,47.85
2018-06-30T05:46:38.979Z,47.94
2018-06-30T05:49:13.405Z,47.63
2018-06-30T05:51:41.949Z,48.05
2018-06-30T05:54:10.873Z,47.92
2018-06-30T05:56:39.464Z,47.35
2018-06-30T05:59:07.976Z,46.41
2018-06-30T06:01:36.932Z,46.98
2018-06-30T06:04:06.196Z,46.15
2018-06-30T06:06:34.955Z,44.97
2018-06-30T06:09:06.017Z,44.95
2018-06-30T06:11:34.603Z,44.91
2018-06-30T06:14:03.928Z,44.43
2018-06-30T06:16:32.857Z,44.04
2018-06-30T06:19:01.376Z,44.72
2018-06-30T06:21:29.893Z,43.98
2018-06-30T06:23:58.708Z,43.42
2018-06-30T06:26:27.176Z,43.60
2018-06-30T06:28:55.755Z,42.91
2018-06-30T06:31:24.963Z,42.37
2018-06-30T06:33:53.467Z,42.75
2018-06-30T06:36:21.981Z,41.99
2018-06-30T06:38:50.920Z,42.29
2018-06-30T06:41:19.472Z,42.13
2018-06-30T06:43:48.004Z,41.92
2018-06-30T06:46:17.303Z,41.66
2018-06-30T06:48:45.787Z,42.15
2018-06-30T06:51:14.234Z,42.05
2018-06-30T06:53:43.880Z,41.74
2018-06-30T06:56:12.386Z,41.04
2018-06-30T06:58:40.959Z,41.79
2018-06-30T07:01:09.920Z,41.65
2018-06-30T07:03:38.412Z,40.95
2018-06-30T07:06:06.924Z,41.66
2018-06-30T07:08:35.794Z,41.16
2018-06-30T07:11:04.381Z,39.71
2018-06-30T07:13:34.439Z,39.89
2018-06-30T07:16:03.911Z,40.74
2018-06-30T07:18:32.485Z,41.11
2018-06-30T07:21:00.972Z,40.05
2018-06-30T07:23:29.965Z,40.15
2018-06-30T07:26:28.908Z,40.22
2018-06-30T07:28:58.260Z,40.64
2018-06-30T07:31:27.623Z,40.20
2018-06-30T07:33:56.203Z,39.73
2018-06-30T07:36:25.173Z,39.62
2018-06-30T07:38:53.700Z,39.35
2018-06-30T07:41:22.304Z,40.06
2018-06-30T07:43:51.091Z,39.98
2018-06-30T07:46:19.659Z,39.08
2018-06-30T07:48:48.185Z,40.18
2018-06-30T07:51:19.320Z,39.59
2018-06-30T07:53:47.986Z,40.23
2018-06-30T07:56:16.572Z,39.73
2018-06-30T07:58:45.516Z,40.34
2018-06-30T08:01:20.775Z,40.58
2018-06-30T08:03:49.323Z,39.79
2018-06-30T08:06:17.820Z,39.71
2018-06-30T08:08:46.736Z,40.39
2018-06-30T08:11:19.586Z,39.72
2018-06-30T08:13:48.085Z,39.30
2018-06-30T08:16:16.636Z,40.08
2018-06-30T08:18:45.531Z,39.74
2018-06-30T08:21:14.159Z,39.57
2018-06-30T08:23:42.689Z,40.13
2018-06-30T08:26:11.691Z,39.42
2018-06-30T08:28:40.212Z,40.08
2018-06-30T08:31:08.752Z,39.38
2018-06-30T08:33:37.544Z,38.47
2018-06-30T08:36:06.464Z,38.48
2018-06-30T08:38:35.004Z,38.80
2018-06-30T08:41:03.927Z,39.91
2018-06-30T08:43:33.596Z,39.09
2018-06-30T08:46:04.292Z,39.66
2018-06-30T08:48:33.303Z,40.05
2018-06-30T08:51:01.888Z,39.83
2018-06-30T08:53:30.472Z,39.69
2018-06-30T08:55:59.413Z,39.87
2018-06-30T08:58:27.950Z,40.47
2018-06-30T09:01:10.973Z,40.82
2018-06-30T09:03:39.891Z,40.03
2018-06-30T09:06:08.345Z,41.03
2018-06-30T09:08:36.927Z,40.67
2018-06-30T09:11:05.717Z,40.46
2018-06-30T09:13:39.359Z,40.86
2018-06-30T09:16:08.015Z,40.23
2018-06-30T09:18:36.991Z,40.12
2018-06-30T09:21:05.606Z,39.25
2018-06-30T09:23:34.110Z,39.81
2018-06-30T09:26:05.441Z,38.97
2018-06-30T09:28:33.960Z,38.72
2018-06-30T09:31:02.532Z,38.74
2018-06-30T09:33:34.631Z,39.33
2018-06-30T09:36:04.639Z,39.31
2018-06-30T09:38:34.603Z,39.32
2018-06-30T09:41:03.549Z,37.88
2018-06-30T09:43:32.103Z,37.54
2018-06-30T09:46:00.616Z,37.22
2018-06-30T09:48:29.579Z,37.24
2018-06-30T09:50:58.126Z,38.17
2018-06-30T09:53:26.667Z,37.86
2018-06-30T09:55:55.655Z,37.30
2018-06-30T09:58:24.184Z,38.33
2018-06-30T10:00:58.262Z,38.23
2018-06-30T10:03:32.840Z,38.79
2018-06-30T10:06:03.128Z,37.93
2018-06-30T10:08:31.692Z,36.79
2018-06-30T10:11:00.539Z,37.32
2018-06-30T10:13:29.093Z,36.52
2018-06-30T10:15:57.604Z,34.29
2018-06-30T10:18:26.564Z,34.25
2018-06-30T10:20:55.149Z,35.29
2018-06-30T10:23:26.942Z,34.39
2018-06-30T10:25:55.898Z,35.35
2018-06-30T10:28:24.450Z,34.95
2018-06-30T10:30:52.981Z,33.77
2018-06-30T10:33:32.549Z,34.20
2018-06-30T10:36:01.170Z,34.54
2018-06-30T10:38:29.664Z,34.16
2018-06-30T10:40:58.257Z,33.83
2018-06-30T10:45:59.195Z,31.73
2018-06-30T10:48:27.811Z,32.79
2018-06-30T10:50:56.346Z,32.38
2018-06-30T10:53:25.488Z,31.48
2018-06-30T10:55:57.969Z,32.52
2018-06-30T10:58:38.224Z,31.38
2018-06-30T11:01:07.537Z,30.61
2018-06-30T11:03:37.734Z,29.53
2018-06-30T11:06:06.399Z,29.53
2018-06-30T11:08:36.355Z,29.58
2018-06-30T11:11:05.075Z,28.65
2018-06-30T11:13:33.838Z,29.15
2018-06-30T11:16:03.168Z,27.73
2018-06-30T11:18:32.803Z,27.80
2018-06-30T11:21:01.286Z,28.18
2018-06-30T11:23:34.949Z,28.19
2018-06-30T11:26:05.788Z,26.91
2018-06-30T11:28:34.292Z,26.69
2018-06-30T11:31:02.821Z,27.46
2018-06-30T11:33:32.458Z,27.04
2018-06-30T11:36:00.976Z,27.61
2018-06-30T11:38:29.488Z,26.50
2018-06-30T11:40:59.309Z,27.09
2018-06-30T11:43:28.216Z,26.91
2018-06-30T11:46:03.807Z,27.28
2018-06-30T11:48:32.343Z,26.40
2018-06-30T11:51:06.911Z,26.05
2018-06-30T11:53:35.424Z,25.61
2018-06-30T11:56:04.778Z,24.91
2018-06-30T11:58:33.909Z,25.04
2018-06-30T12:01:03.428Z,25.97
2018-06-30T12:03:32.291Z,26.53
2018-06-30T12:06:01.051Z,25.81
2018-06-30T12:08:29.590Z,24.74
2018-06-30T12:11:09.436Z,24.68
2018-06-30T12:13:38.215Z,24.33
2018-06-30T12:16:10.289Z,23.18
2018-06-30T12:18:38.844Z,23.80
2018-06-30T12:21:10.688Z,23.10
2018-06-30T12:23:39.256Z,21.99
2018-06-30T12:26:08.926Z,22.47
2018-06-30T12:28:37.860Z,22.33
2018-06-30T12:31:06.981Z,22.25
2018-06-30T12:33:35.573Z,21.52
2018-06-30T12:36:04.791Z,21.41
2018-06-30T12:38:33.653Z,21.34
2018-06-30T12:41:03.064Z,20.81
2018-06-30T12:43:31.621Z,20.71
2018-06-30T12:46:00.445Z,19.93
2018-06-30T12:48:29.017Z,19.94
2018-06-30T12:50:57.627Z,19.81
2018-06-30T12:53:26.461Z,20.50
2018-06-30T12:55:55.028Z,20.01
2018-06-30T12:58:23.561Z,19.47
2018-06-30T13:00:52.385Z,18.75
2018-06-30T13:03:21.039Z,18.57
2018-06-30T13:05:49.713Z,18.44
2018-06-30T13:08:18.262Z,18.20
2018-06-30T13:10:47.135Z,17.54
2018-06-30T13:13:15.791Z,17.05
2018-06-30T13:15:44.627Z,16.53
2018-06-30T13:18:13.231Z,16.60
2018-06-30T13:20:42.092Z,16.01
2018-06-30T13:23:11.055Z,15.76
2018-06-30T13:25:39.611Z,15.52
2018-06-30T13:28:08.152Z,15.47
2018-06-30T13:30:36.939Z,15.56
2018-06-30T13:33:05.476Z,15.42
2018-06-30T13:35:33.951Z,14.63
2018-06-30T13:38:09.971Z,14.68
2018-06-30T13:40:38.709Z,15.64
2018-06-30T13:43:07.476Z,16.68
2018-06-30T13:45:35.966Z,16.73
2018-06-30T13:48:05.796Z,15.50
2018-06-30T13:50:34.619Z,15.32
2018-06-30T13:53:03.236Z,14.82
2018-06-30T13:55:31.867Z,14.14
2018-06-30T13:58:01.301Z,13.39
2018-06-30T14:00:30.116Z,13.48
2018-06-30T14:02:59.215Z,13.14
2018-06-30T14:05:28.212Z,14.75
2018-06-30T14:07:57.026Z,14.64
2018-06-30T14:10:25.747Z,13.74
2018-06-30T14:13:01.668Z,12.39
2018-06-30T14:15:30.407Z,12.26
2018-06-30T14:18:09.951Z,11.14
2018-06-30T14:20:38.723Z,9.92
2018-06-30T14:23:07.267Z,10.79
2018-06-30T14:25:36.057Z,12.66
2018-06-30T14:28:06.763Z,13.98
2018-06-30T14:30:41.495Z,15.56
2018-06-30T14:33:10.412Z,16.46
2018-06-30T14:38:19.268Z,14.56
2018-06-30T14:40:50.937Z,14.72
2018-06-30T14:43:19.691Z,16.00
2018-06-30T14:45:48.691Z,16.69
2018-06-30T14:48:17.707Z,16.25
2018-06-30T14:50:57.355Z,14.58
2018-06-30T14:53:26.393Z,13.56
2018-06-30T14:55:55.335Z,12.50
2018-06-30T14:58:23.957Z,11.50
2018-06-30T15:00:52.925Z,11.42
2018-06-30T15:03:22.889Z,11.78
2018-06-30T15:05:51.700Z,11.04
2018-06-30T15:08:20.989Z,11.65
2018-06-30T15:10:50.035Z,11.06
2018-06-30T15:13:29.520Z,11.14
2018-06-30T15:15:58.494Z,10.65
2018-06-30T15:18:27.104Z,11.63
2018-06-30T15:20:56.005Z,11.79
2018-06-30T15:23:31.377Z,12.15
2018-06-30T15:26:00.163Z,12.71
2018-06-30T15:28:30.678Z,12.33
2018-06-30T15:30:59.808Z,12.68
2018-06-30T15:33:28.511Z,13.11
2018-06-30T15:36:03.276Z,12.84
2018-06-30T15:38:32.267Z,13.73
2018-06-30T15:41:01.482Z,14.66
2018-06-30T15:43:30.141Z,15.86
2018-06-30T15:45:58.805Z,16.18
2018-06-30T15:48:32.691Z,16.77
2018-06-30T15:51:01.922Z,17.58
2018-06-30T15:53:30.704Z,17.86
2018-06-30T15:55:59.253Z,18.49
2018-06-30T15:58:27.819Z,19.27
2018-06-30T16:00:56.384Z,20.02
2018-06-30T16:03:30.993Z,20.72
2018-06-30T16:05:59.625Z,21.42
2018-06-30T16:08:28.853Z,21.55
2018-06-30T16:11:01.055Z,22.82
2018-06-30T16:13:29.568Z,23.38
2018-06-30T16:15:58.155Z,23.70
2018-06-30T16:18:27.052Z,23.82
2018-06-30T16:20:55.758Z,24.91
2018-06-30T16:23:25.348Z,25.19
2018-06-30T16:25:54.302Z,26.09
2018-06-30T16:28:22.863Z,26.25
2018-06-30T16:30:58.568Z,26.99
2018-06-30T16:33:27.178Z,26.76
2018-06-30T16:35:55.728Z,27.45
2018-06-30T16:38:24.923Z,27.20
2018-06-30T16:40:53.449Z,27.89
2018-06-30T16:43:22.404Z,28.21
2018-06-30T16:45:51.026Z,27.74
2018-06-30T16:48:19.632Z,29.03
2018-06-30T16:50:48.425Z,29.35
2018-06-30T16:53:21.952Z,29.42
2018-06-30T16:55:50.501Z,28.99
2018-06-30T16:58:24.684Z,28.25
2018-06-30T17:00:53.224Z,29.01
2018-06-30T17:03:22.011Z,28.56
2018-06-30T17:05:50.569Z,28.42
2018-06-30T17:08:20.040Z,28.38
2018-06-30T17:10:48.564Z,29.05
2018-06-30T17:13:17.142Z,29.13
2018-06-30T17:15:47.173Z,28.47
2018-06-30T17:18:15.809Z,28.45
2018-06-30T17:20:44.513Z,28.05
2018-06-30T17:23:13.452Z,28.88
2018-06-30T17:25:42.032Z,28.07
2018-06-30T17:28:15.561Z,27.36
2018-06-30T17:30:44.418Z,27.00
2018-06-30T17:33:12.948Z,27.09
2018-06-30T17:35:41.449Z,26.63
2018-06-30T17:38:12.156Z,26.51
2018-06-30T17:40:40.681Z,26.23
2018-06-30T17:43:09.213Z,26.94
2018-06-30T17:45:38.001Z,25.89
2018-06-30T17:48:06.653Z,25.70
2018-06-30T17:50:35.165Z,25.65
2018-06-30T17:53:10.372Z,26.12
2018-06-30T17:55:39.672Z,26.01
2018-06-30T17:58:12.868Z,25.94
2018-06-30T18:00:42.218Z,26.21
2018-06-30T18:03:14.180Z,25.51
2018-06-30T18:05:52.768Z,25.63
2018-06-30T18:08:22.109Z,25.89
2018-06-30T18:10:50.828Z,26.02
2018-06-30T18:13:19.517Z,25.96
2018-06-30T18:15:51.842Z,26.31
2018-06-30T18:18:20.479Z,26.47
2018-06-30T18:20:49.648Z,26.50
2018-06-30T18:23:21.222Z,26.55
2018-06-30T18:25:49.968Z,26.61
2018-06-30T18:28:18.746Z,27.27
2018-06-30T18:30:47.926Z,26.54
2018-06-30T18:33:16.934Z,26.09
2018-06-30T18:35:47.543Z,26.62
2018-06-30T18:38:16.694Z,26.69
2018-06-30T18:40:45.796Z,26.33
2018-06-30T18:43:14.431Z,26.04
2018-06-30T18:45:43.692Z,25.20
2018-06-30T18:48:12.615Z,25.20
2018-06-30T18:50:47.572Z,25.55
2018-06-30T18:53:16.759Z,25.62
2018-06-30T18:55:45.577Z,25.35
2018-06-30T18:58:14.964Z,25.27
2018-06-30T19:00:45.055Z,25.31
2018-06-30T19:03:13.854Z,25.62
2018-06-30T19:05:42.533Z,25.54
2018-06-30T19:08:13.977Z,25.84
2018-06-30T19:10:43.746Z,25.66
2018-06-30T19:13:12.873Z,25.13
2018-06-30T19:15:43.316Z,24.82
2018-06-30T19:18:12.265Z,24.91
2018-06-30T19:23:27.096Z,25.31
2018-06-30T19:25:56.004Z,24.61
2018-06-30T19:28:30.986Z,23.92
2018-06-30T19:30:59.688Z,23.92
2018-06-30T19:33:28.539Z,23.09
2018-06-30T19:35:57.833Z,22.19
2018-06-30T19:38:27.285Z,23.51
2018-06-30T19:40:56.506Z,22.79
2018-06-30T19:43:29.578Z,22.46
2018-06-30T19:45:58.605Z,22.43
2018-06-30T19:48:27.902Z,21.47
2018-06-30T19:50:56.494Z,22.37
2018-06-30T19:53:29.006Z,22.45
2018-06-30T19:55:58.242Z,21.83
2018-06-30T19:58:27.146Z,21.82
2018-06-30T20:00:55.997Z,22.04
2018-06-30T20:03:31.595Z,21.85
2018-06-30T20:06:00.149Z,21.75
2018-06-30T20:08:31.236Z,21.64
2018-06-30T20:10:59.781Z,21.44
2018-06-30T20:13:28.339Z,20.97
2018-06-30T20:15:57.115Z,21.57
2018-06-30T20:18:29.107Z,21.80
2018-06-30T20:20:57.675Z,20.73
2018-06-30T20:26:00.116Z,20.86
2018-06-30T20:28:29.115Z,22.19
2018-06-30T20:30:57.874Z,21.50
2018-06-30T20:33:26.786Z,21.01
2018-06-30T20:35:55.756Z,21.42
2018-06-30T20:38:24.341Z,21.56
2018-06-30T20:40:52.920Z,21.72
2018-06-30T20:43:22.133Z,20.77
2018-06-30T20:45:50.715Z,21.05
2018-06-30T20:48:19.356Z,21.43
2018-06-30T20:50:48.562Z,22.12
2018-06-30T20:53:20.425Z,22.23
2018-06-30T20:55:55.241Z,21.55
2018-06-30T20:58:23.833Z,22.08
2018-06-30T21:00:52.492Z,23.07
2018-06-30T21:03:22.515Z,22.51
2018-06-30T21:05:51.073Z,23.13
2018-06-30T21:08:19.941Z,21.95
2018-06-30T21:10:48.520Z,21.87
2018-06-30T21:13:17.076Z,22.20
2018-06-30T21:15:45.629Z,22.35
2018-06-30T21:18:14.567Z,22.16
2018-06-30T21:20:43.265Z,22.33
2018-06-30T21:23:11.767Z,22.21
2018-06-30T21:25:42.802Z,23.21
2018-06-30T21:28:11.384Z,22.11
2018-06-30T21:30:44.402Z,22.96
2018-06-30T21:33:12.920Z,22.47
2018-06-30T21:35:41.470Z,22.36
2018-06-30T21:40:51.496Z,22.49
2018-06-30T21:43:20.023Z,23.36
2018-06-30T21:45:49.020Z,23.18
2018-06-30T21:48:23.390Z,23.38
2018-06-30T21:50:52.332Z,23.05
2018-06-30T21:53:20.868Z,22.70
2018-06-30T21:55:49.480Z,23.38
2018-06-30T21:58:22.212Z,23.89
2018-06-30T22:00:56.141Z,24.04
2018-06-30T22:03:27.012Z,24.14
2018-06-30T22:05:57.283Z,23.40
2018-06-30T22:08:26.416Z,23.68
2018-06-30T22:10:55.552Z,23.25
2018-06-30T22:13:24.437Z,23.20
2018-06-30T22:15:53.145Z,23.87
2018-06-30T22:18:21.807Z,23.28
2018-06-30T22:20:52.764Z,23.94
2018-06-30T22:23:21.330Z,23.33
2018-06-30T22:25:49.895Z,24.44
2018-06-30T22:28:18.928Z,23.72
2018-06-30T22:30:47.575Z,24.26
2018-06-30T22:33:16.128Z,23.69
2018-06-30T22:35:44.931Z,24.71
2018-06-30T22:38:19.625Z,24.54
2018-06-30T22:40:48.272Z,24.96
2018-06-30T22:43:17.188Z,24.51
2018-06-30T22:45:45.689Z,25.54
2018-06-30T22:48:14.259Z,25.22
2018-06-30T22:50:43.106Z,24.81
2018-06-30T22:53:11.643Z,24.66
2018-06-30T22:55:40.246Z,24.99
2018-06-30T22:58:09.308Z,25.97
2018-06-30T23:00:37.977Z,25.00
2018-06-30T23:03:12.677Z,24.89
2018-06-30T23:05:42.240Z,25.52
2018-06-30T23:08:10.940Z,25.86
2018-06-30T23:10:39.545Z,24.84
2018-06-30T23:13:08.086Z,25.26
2018-06-30T23:15:37.048Z,26.15
2018-06-30T23:18:05.633Z,25.14
2018-06-30T23:20:44.794Z,26.20
2018-06-30T23:23:13.360Z,25.62
2018-06-30T23:25:42.175Z,26.06
2018-06-30T23:28:13.104Z,26.18
2018-06-30T23:30:42.542Z,25.74
2018-06-30T23:33:17.050Z,26.83
2018-06-30T23:35:45.562Z,26.95
2018-06-30T23:38:16.207Z,26.13
2018-06-30T23:40:45.143Z,26.41
2018-06-30T23:43:18.507Z,26.49
2018-06-30T23:45:47.047Z,26.57
2018-06-30T23:48:15.971Z,26.79
2018-06-30T23:50:44.519Z,27.54
2018-06-30T23:53:13.015Z,27.63
2018-06-30T23:55:48.511Z,27.20
2018-06-30T23:58:17.027Z,27.73
